KRSL

Details ICAO KRSL
Name RUSSELL MUNI
Region United States
Timezone America/Chicago (UTC-5.0)
Plans Departing 0
Arriving 1
Stats Elevation 1,862 ft / 568 m (AMSL)
Location 38.872235° -98.812578°
Runways 2
Magnetic Variation 4.519° E
Sunrise 2018-05-20 11:20:07 UTC / 2018-05-20 06:20:07 Local
Sunset 2018-05-21 01:46:19 UTC / 2018-05-20 20:46:19 Local
Advertisement - Login to hide

Runways

ID Width Length Bearing (true) Bearing (mag) Surface Threshold Offset Overrun Length
03 300 ft / 91 m 1,603 ft / 489 m 29.90° 25.38° Dirt 0 ft / 0 m 0 ft / 0 m
17 75 ft / 23 m 5,010 ft / 1,527 m 173.77° 169.25° Concrete 0 ft / 0 m 0 ft / 0 m
21 300 ft / 91 m 1,603 ft / 489 m 209.91° 205.39° Dirt 0 ft / 0 m 0 ft / 0 m
35 75 ft / 23 m 5,010 ft / 1,527 m 353.77° 349.25° Concrete 0 ft / 0 m 0 ft / 0 m

Map

Weather


0- 5 10 15 20 25 30 35+ Temperature / ° C

Clouds and Precipitation
Forecast for 2018-05-21 06:00 UTC. Updated 34 minutes ago

Ground ~20,000 ft ~40,000 ft Winds

METAR

KRSL 210335Z AUTO 36007KT 8SM FEW010 SCT015 14/14 A3011 RMK AO2 T01390139

TAF

KRSL 210049Z 2101/2124 03009KT P6SM BKN025 FM210900 VRB03KT 5SM BR OVC008 FM211400 20008KT P6SM SCT025 BKN050

Frequencies

Recorded 128.32 MHz ASOS
Unicom 122.70 MHz CTAF/UNICOM
Warning: Do not use this data for real-world aviation or navigation. No guarantee of current accuracy is given.